Time;durP1;ratioP1;P1;durP2;ratioP2;P2;SDS_P1;SDS_P2;PMS_P1;PMS_P2;Temp;Humidity;BMP_temperature;BMP_pressure;BME280_temperature;BME280_humidity;BME280_pressure;Samples;Min_cycle;Max_cycle;Signal;HPM_P1;HPM_P2
2021/04/21 00:01:27;;;;;;;9.85;6.20;;;4.00;72.70;;;;;;4990013;29;20045;-67
2021/04/21 00:03:59;;;;;;;8.73;6.28;;;4.10;72.00;;;;;;4988929;29;20061;-66
2021/04/21 00:06:33;;;;;;;10.32;6.70;;;4.00;72.10;;;;;;5002130;29;20050;-67
2021/04/21 00:09:07;;;;;;;8.38;6.18;;;4.00;71.90;;;;;;4990089;29;20098;-68
2021/04/21 00:11:40;;;;;;;7.97;5.85;;;4.00;71.80;;;;;;4988663;29;20098;-67
2021/04/21 00:14:17;;;;;;;9.10;6.28;;;3.90;72.50;;;;;;4989915;29;20046;-67
2021/04/21 00:16:55;;;;;;;8.40;6.10;;;3.80;72.60;;;;;;4989000;29;20232;-67
2021/04/21 00:19:29;;;;;;;7.65;5.95;;;3.70;73.30;;;;;;4988994;29;20064;-67
2021/04/21 00:22:02;;;;;;;8.45;6.28;;;3.60;73.30;;;;;;4988250;29;20707;-67
2021/04/21 00:24:38;;;;;;;9.02;5.90;;;3.60;73.60;;;;;;5003308;29;20074;-67
2021/04/21 00:27:10;;;;;;;9.63;6.40;;;3.60;74.00;;;;;;4987863;29;20047;-67
2021/04/21 00:29:45;;;;;;;8.23;6.13;;;3.60;74.00;;;;;;5002452;29;20046;-67
2021/04/21 00:32:18;;;;;;;8.00;5.90;;;3.50;74.20;;;;;;4988994;29;20099;-67
2021/04/21 00:34:51;;;;;;;8.45;5.90;;;3.40;74.70;;;;;;4987338;29;20054;-68
2021/04/21 00:37:26;;;;;;;7.82;5.85;;;3.30;74.90;;;;;;4987409;29;20054;-67
2021/04/21 00:39:59;;;;;;;7.50;5.68;;;3.30;74.80;;;;;;4999617;29;20096;-67
2021/04/21 00:42:53;;;;;;;8.00;6.00;;;3.40;74.80;;;;;;4983314;29;20629;-67
2021/04/21 00:45:42;;;;;;;8.15;5.65;;;3.40;74.50;;;;;;4988250;29;20126;-67
2021/04/21 00:48:26;;;;;;;8.73;5.60;;;3.40;74.30;;;;;;4991417;29;20133;-67
2021/04/21 00:51:04;;;;;;;7.07;5.32;;;3.50;73.90;;;;;;5002739;29;20049;-68
2021/04/21 00:53:59;;;;;;;9.25;6.03;;;3.50;74.10;;;;;;4988001;29;20043;-67
2021/04/21 00:57:02;;;;;;;8.50;6.05;;;3.50;74.00;;;;;;5003165;29;20045;-67
2021/04/21 01:00:14;;;;;;;8.80;6.20;;;3.50;73.90;;;;;;4990706;29;20079;-68
2021/04/21 01:03:10;;;;;;;9.52;6.18;;;3.50;73.10;;;;;;4986744;29;20066;-68
2021/04/21 01:05:46;;;;;;;8.23;5.90;;;3.50;73.10;;;;;;4987220;29;20775;-67
2021/04/21 01:08:31;;;;;;;7.28;5.55;;;3.40;73.80;;;;;;4986283;29;20125;-67
2021/04/21 01:11:08;;;;;;;8.00;5.78;;;3.30;74.00;;;;;;4988122;29;20170;-67
2021/04/21 01:13:46;;;;;;;9.25;6.32;;;3.40;73.80;;;;;;4988787;29;20054;-67
2021/04/21 01:16:23;;;;;;;8.00;5.80;;;3.40;73.40;;;;;;5003042;29;20054;-66
2021/04/21 01:18:59;;;;;;;7.55;5.57;;;3.40;73.60;;;;;;4989245;29;20046;-67
2021/04/21 01:21:42;;;;;;;8.70;6.20;;;3.30;73.10;;;;;;4989830;29;20793;-67
2021/04/21 01:24:42;;;;;;;8.73;5.95;;;3.20;74.10;;;;;;4989986;29;20107;-68
2021/04/21 01:27:18;;;;;;;9.18;5.32;;;3.10;74.60;;;;;;4986658;29;20103;-67
2021/04/21 01:29:54;;;;;;;8.27;5.57;;;3.00;74.90;;;;;;4988730;29;20131;-67
2021/04/21 01:32:30;;;;;;;8.35;6.28;;;3.00;74.80;;;;;;4989384;29;20509;-67
2021/04/21 01:35:04;;;;;;;9.10;6.57;;;3.10;73.70;;;;;;5000860;29;20058;-67
2021/04/21 01:37:36;;;;;;;9.60;6.43;;;3.10;73.60;;;;;;4989162;29;20064;-67
2021/04/21 01:40:15;;;;;;;8.52;5.95;;;3.10;73.60;;;;;;5001025;29;20574;-67
2021/04/21 01:42:53;;;;;;;8.70;5.80;;;3.10;73.20;;;;;;5003387;29;20046;-67
2021/04/21 01:45:28;;;;;;;7.63;5.28;;;3.10;73.30;;;;;;4989555;29;20114;-67
2021/04/21 01:48:11;;;;;;;8.70;5.50;;;3.10;73.80;;;;;;4992402;29;20046;-67
2021/04/21 01:50:42;;;;;;;8.00;4.90;;;3.00;74.10;;;;;;4990019;29;20596;-67
2021/04/21 01:53:38;;;;;;;7.82;5.47;;;3.00;74.50;;;;;;4986290;29;20033;-67
2021/04/21 01:56:24;;;;;;;7.38;5.20;;;3.00;74.40;;;;;;4990064;29;20156;-67
2021/04/21 01:59:36;;;;;;;8.32;4.95;;;3.10;74.00;;;;;;4991105;29;20046;-67
2021/04/21 02:02:13;;;;;;;8.70;5.20;;;3.20;73.30;;;;;;5002723;29;20081;-67
2021/04/21 02:04:55;;;;;;;7.18;5.25;;;3.20;73.50;;;;;;4989280;29;20038;-67
2021/04/21 02:07:57;;;;;;;6.35;4.63;;;3.10;73.90;;;;;;4992939;29;20094;-67
2021/04/21 02:10:49;;;;;;;7.28;5.38;;;3.00;74.30;;;;;;4992317;29;20042;-67
2021/04/21 02:13:45;;;;;;;8.32;5.45;;;2.90;75.00;;;;;;4991503;29;20058;-66
2021/04/21 02:16:19;;;;;;;7.07;5.05;;;2.90;75.00;;;;;;4992397;29;20049;-68
2021/04/21 02:19:11;;;;;;;7.25;5.13;;;3.00;74.40;;;;;;4991376;29;20049;-67
2021/04/21 02:21:53;;;;;;;8.75;5.25;;;2.90;74.80;;;;;;5004734;29;20116;-67
2021/04/21 02:24:45;;;;;;;8.20;5.38;;;2.70;75.30;;;;;;4992217;29;20078;-67
2021/04/21 02:27:31;;;;;;;9.10;5.65;;;2.60;75.50;;;;;;4991138;29;20042;-67
2021/04/21 02:30:13;;;;;;;9.50;6.35;;;2.70;74.60;;;;;;4993337;29;20500;-67
2021/04/21 02:33:00;;;;;;;8.27;5.78;;;2.60;74.00;;;;;;4993576;29;20126;-66
2021/04/21 02:35:57;;;;;;;9.52;6.55;;;2.60;74.10;;;;;;4989939;29;20107;-66
2021/04/21 02:38:40;;;;;;;7.75;5.50;;;2.60;73.50;;;;;;4990627;29;20042;-66
2021/04/21 02:41:19;;;;;;;9.02;5.82;;;2.60;73.50;;;;;;4990395;29;20126;-66
2021/04/21 02:44:15;;;;;;;8.70;5.65;;;2.50;73.50;;;;;;4989674;29;20831;-66
2021/04/21 02:47:21;;;;;;;7.95;5.47;;;2.60;73.20;;;;;;4992314;29;20133;-66
2021/04/21 02:49:59;;;;;;;7.35;5.10;;;2.60;73.30;;;;;;4993661;29;20058;-66
2021/04/21 02:52:36;;;;;;;6.82;4.72;;;2.50;73.90;;;;;;4991527;29;20077;-66
2021/04/21 02:55:41;;;;;;;7.20;5.18;;;2.50;74.20;;;;;;4991183;29;20054;-66
2021/04/21 02:58:25;;;;;;;7.75;5.45;;;2.50;74.30;;;;;;5002498;29;20126;-66
2021/04/21 03:01:05;;;;;;;7.85;5.47;;;2.50;74.50;;;;;;4990200;29;20135;-67
2021/04/21 03:03:52;;;;;;;;;;;2.50;74.60;;;;;;5004007;29;20125;-66
2021/04/21 03:06:32;;;;;;;7.10;4.70;;;2.50;75.60;;;;;;4990409;29;19993;-66
2021/04/21 03:09:12;;;;;;;;;;;2.40;75.50;;;;;;4990443;29;20130;-67
2021/04/21 03:11:47;;;;;;;8.68;5.60;;;2.40;75.20;;;;;;4991426;29;20655;-66
2021/04/21 03:14:22;;;;;;;8.68;5.40;;;2.40;74.80;;;;;;4989744;29;20081;-66
2021/04/21 03:17:01;;;;;;;8.32;5.53;;;2.50;74.60;;;;;;4990327;29;20525;-66
2021/04/21 03:19:38;;;;;;;8.38;5.55;;;2.40;74.00;;;;;;4988392;29;20074;-66
2021/04/21 03:22:14;;;;;;;9.07;5.63;;;2.40;73.80;;;;;;4990098;29;20107;-66
2021/04/21 03:25:12;;;;;;;8.88;5.05;;;2.30;73.00;;;;;;4987935;29;20038;-66
2021/04/21 03:27:49;;;;;;;7.35;5.05;;;2.40;73.00;;;;;;4992013;29;20537;-68
2021/04/21 03:30:24;;;;;;;7.85;5.05;;;2.30;74.70;;;;;;4989689;29;20114;-66
2021/04/21 03:33:10;;;;;;;8.90;5.75;;;2.30;74.40;;;;;;4990586;29;20167;-68
2021/04/21 03:35:43;;;;;;;9.02;5.85;;;2.30;74.40;;;;;;4991285;29;20601;-66
2021/04/21 03:38:16;;;;;;;8.13;5.55;;;2.30;74.10;;;;;;5004311;29;20122;-66
2021/04/21 03:40:48;;;;;;;8.40;5.45;;;2.30;74.40;;;;;;4989492;29;20046;-66
2021/04/21 03:43:20;;;;;;;7.75;4.90;;;2.30;74.30;;;;;;4989253;29;20110;-67
2021/04/21 03:45:53;;;;;;;8.85;5.10;;;2.20;74.70;;;;;;4987386;29;20054;-66
2021/04/21 03:48:25;;;;;;;7.38;4.93;;;2.10;75.50;;;;;;4990173;29;20070;-66
2021/04/21 03:50:57;;;;;;;7.82;5.13;;;2.00;76.00;;;;;;4989678;29;20053;-66
2021/04/21 03:53:33;;;;;;;7.22;4.90;;;2.00;75.90;;;;;;5006142;29;20532;-66
2021/04/21 03:56:08;;;;;;;8.52;5.80;;;2.00;75.00;;;;;;4989201;29;20058;-66
2021/04/21 03:58:42;;;;;;;8.82;5.70;;;2.00;75.00;;;;;;4990346;29;20130;-66
2021/04/21 04:01:20;;;;;;;7.70;5.55;;;2.00;74.50;;;;;;4989335;29;20133;-65
2021/04/21 04:03:54;;;;;;;6.95;4.63;;;2.10;73.70;;;;;;4989758;29;20473;-65
2021/04/21 04:06:37;;;;;;;7.47;5.40;;;2.10;74.00;;;;;;5003680;29;20122;-65
2021/04/21 04:09:09;;;;;;;7.65;5.05;;;2.10;74.60;;;;;;4989145;29;20050;-65
2021/04/21 04:11:45;;;;;;;7.20;4.72;;;2.00;74.10;;;;;;4987625;29;20103;-65
2021/04/21 04:14:20;;;;;;;6.90;4.90;;;2.00;74.00;;;;;;4987097;29;20129;-67
2021/04/21 04:16:54;;;;;;;7.00;4.82;;;2.00;74.30;;;;;;4987748;29;20531;-65
2021/04/21 04:19:26;;;;;;;7.82;5.53;;;2.10;73.90;;;;;;4991231;29;20462;-65
2021/04/21 04:22:06;;;;;;;8.77;5.90;;;2.00;74.90;;;;;;4991608;29;20046;-65
2021/04/21 04:24:44;;;;;;;8.43;5.15;;;2.00;74.10;;;;;;5004313;29;20153;-65
2021/04/21 04:27:17;;;;;;;7.47;4.85;;;2.10;73.80;;;;;;4989124;29;20050;-65
2021/04/21 04:29:50;;;;;;;8.57;4.78;;;2.10;74.40;;;;;;5003220;29;20130;-65
2021/04/21 04:32:24;;;;;;;7.80;4.40;;;2.00;75.30;;;;;;4988185;29;20042;-64
2021/04/21 04:34:59;;;;;;;7.40;5.00;;;2.00;75.40;;;;;;4971584;29;20066;-65
2021/04/21 04:37:31;;;;;;;6.70;4.85;;;1.90;75.80;;;;;;4990258;29;20126;-65
2021/04/21 04:40:03;;;;;;;6.95;4.75;;;1.90;76.20;;;;;;4989374;29;20053;-65
2021/04/21 04:42:37;;;;;;;6.43;4.40;;;1.80;76.40;;;;;;4988060;29;20050;-65
2021/04/21 04:45:10;;;;;;;6.85;4.90;;;1.80;76.70;;;;;;4992465;29;20047;-65
2021/04/21 04:47:45;;;;;;;7.28;4.40;;;1.80;77.70;;;;;;4994932;29;20126;-65
2021/04/21 04:50:20;;;;;;;8.43;5.80;;;1.80;76.80;;;;;;4986622;29;20041;-65
2021/04/21 04:52:53;;;;;;;8.60;5.97;;;1.80;75.80;;;;;;5003071;29;20046;-65
2021/04/21 04:55:27;;;;;;;8.35;5.50;;;1.80;75.00;;;;;;4988792;29;20054;-65
2021/04/21 04:58:02;;;;;;;7.22;5.03;;;1.80;74.40;;;;;;4988335;29;20087;-68
2021/04/21 05:00:35;;;;;;;9.00;5.57;;;2.00;74.10;;;;;;4990801;29;20406;-66
2021/04/21 05:03:22;;;;;;;9.48;5.72;;;2.00;73.90;;;;;;4991761;29;20429;-65
2021/04/21 05:05:55;;;;;;;8.55;5.55;;;2.10;73.50;;;;;;4986740;29;20062;-66
2021/04/21 05:08:54;;;;;;;8.82;5.05;;;2.30;72.80;;;;;;4986184;29;20051;-66
2021/04/21 05:11:28;;;;;;;7.75;5.45;;;2.40;73.00;;;;;;4986441;29;20130;-66
2021/04/21 05:14:04;;;;;;;9.15;5.97;;;2.50;72.70;;;;;;5003343;29;20538;-66
2021/04/21 05:16:54;;;;;;;7.38;4.95;;;2.60;72.90;;;;;;4986932;29;20051;-65
2021/04/21 05:20:03;;;;;;;6.75;4.65;;;2.70;73.40;;;;;;4992234;29;20053;-65
2021/04/21 05:22:34;;;;;;;9.40;4.72;;;2.70;73.50;;;;;;4993819;29;20050;-67
2021/04/21 05:25:53;;;;;;;7.72;4.80;;;2.90;73.00;;;;;;4987633;29;20438;-67
2021/04/21 05:28:42;;;;;;;8.23;5.65;;;3.00;72.70;;;;;;4988925;29;20055;-65
2021/04/21 05:31:23;;;;;;;5.97;4.47;;;3.20;72.30;;;;;;4977613;29;20056;-65
2021/04/21 05:34:24;;;;;;;;;;;3.40;72.10;;;;;;4992032;29;20050;-65
2021/04/21 05:37:01;;;;;;;;;;;3.50;71.90;;;;;;4992601;29;20316;-65
2021/04/21 05:39:57;;;;;;;9.32;5.80;;;3.70;70.50;;;;;;4992983;29;19928;-65
2021/04/21 05:42:50;;;;;;;9.57;5.53;;;3.90;70.30;;;;;;4991597;29;20420;-65
2021/04/21 05:45:39;;;;;;;9.70;5.60;;;3.80;70.50;;;;;;4994283;29;20731;-65
2021/04/21 05:48:14;;;;;;;8.00;5.72;;;3.90;70.60;;;;;;4992246;29;20042;-67
2021/04/21 05:51:04;;;;;;;8.23;5.47;;;4.10;70.70;;;;;;4993443;29;20515;-67
2021/04/21 05:53:56;;;;;;;8.30;6.10;;;4.20;71.70;;;;;;4991328;29;20145;-67
2021/04/21 05:57:07;;;;;;;8.73;5.70;;;4.30;70.60;;;;;;5005796;29;20054;-67
2021/04/21 05:59:57;;;;;;;8.88;6.15;;;4.50;69.80;;;;;;4991619;29;20042;-68
2021/04/21 06:02:30;;;;;;;7.82;4.95;;;4.70;69.50;;;;;;4991829;29;20462;-67
2021/04/21 06:05:11;;;;;;;8.05;4.90;;;4.90;70.00;;;;;;4993803;29;20053;-67
2021/04/21 06:07:43;;;;;;;8.38;5.57;;;5.10;69.30;;;;;;4991231;29;20062;-67
2021/04/21 06:10:29;;;;;;;12.48;6.05;;;5.40;68.20;;;;;;4991285;29;20053;-67
2021/04/21 06:13:02;;;;;;;7.90;5.15;;;5.60;68.40;;;;;;4990695;29;20073;-66
2021/04/21 06:15:36;;;;;;;9.10;5.45;;;5.70;68.60;;;;;;4993505;29;20046;-68
2021/04/21 06:18:10;;;;;;;7.70;5.00;;;5.80;67.80;;;;;;4991648;29;20502;-67
2021/04/21 06:20:44;;;;;;;9.77;5.03;;;5.90;67.50;;;;;;4990518;29;20050;-67
2021/04/21 06:23:24;;;;;;;6.88;4.75;;;6.00;66.90;;;;;;4991219;29;20564;-67
2021/04/21 06:26:02;;;;;;;7.45;5.40;;;6.10;67.50;;;;;;4993138;29;20057;-67
2021/04/21 06:28:34;;;;;;;8.02;5.55;;;6.30;66.20;;;;;;4989765;29;20042;-67
2021/04/21 06:31:11;;;;;;;10.80;7.18;;;6.60;66.40;;;;;;4990805;29;20054;-67
2021/04/21 06:33:44;;;;;;;14.93;9.57;;;6.70;64.80;;;;;;5004484;29;20050;-67
2021/04/21 06:36:16;;;;;;;12.25;7.90;;;6.90;64.80;;;;;;4989563;29;20051;-70
2021/04/21 06:38:54;;;;;;;9.82;6.38;;;7.10;64.60;;;;;;4991196;29;20058;-68
2021/04/21 06:41:26;;;;;;;7.28;5.22;;;7.30;63.00;;;;;;4991235;29;20531;-67
2021/04/21 06:43:58;;;;;;;8.55;4.75;;;7.40;63.80;;;;;;4990945;29;20074;-67
2021/04/21 06:46:29;;;;;;;7.72;5.05;;;7.70;64.00;;;;;;4989702;29;20046;-68
2021/04/21 06:49:03;;;;;;;7.95;5.55;;;7.80;62.80;;;;;;4993407;29;20513;-68
2021/04/21 06:51:36;;;;;;;7.85;5.38;;;8.00;62.50;;;;;;4989754;29;20046;-67
2021/04/21 06:54:07;;;;;;;6.43;4.28;;;8.20;61.60;;;;;;4992366;29;20679;-67
2021/04/21 06:56:39;;;;;;;7.97;4.63;;;8.40;59.40;;;;;;4995295;29;20056;-67
2021/04/21 06:59:19;;;;;;;6.30;4.50;;;8.50;60.20;;;;;;5005983;29;20070;-67
2021/04/21 07:01:50;;;;;;;5.95;4.60;;;8.70;59.40;;;;;;5006361;29;20533;-67
2021/04/21 07:04:22;;;;;;;8.00;5.07;;;8.70;55.50;;;;;;4989556;29;20186;-68
2021/04/21 07:06:54;;;;;;;6.65;4.53;;;8.90;58.40;;;;;;4991996;29;20049;-67
2021/04/21 07:09:26;;;;;;;7.57;4.57;;;9.00;54.90;;;;;;4978307;29;20051;-67
2021/04/21 07:12:00;;;;;;;7.47;4.25;;;9.10;54.90;;;;;;4988953;29;20844;-67
2021/04/21 07:14:32;;;;;;;7.63;4.75;;;9.10;52.10;;;;;;4989415;29;20042;-68
2021/04/21 07:17:04;;;;;;;7.35;4.20;;;9.30;53.30;;;;;;4989759;29;20061;-67
2021/04/21 07:19:36;;;;;;;7.82;4.65;;;9.40;51.00;;;;;;4991982;29;20075;-67
2021/04/21 07:22:12;;;;;;;7.07;4.35;;;9.50;51.00;;;;;;4991521;29;20054;-67
2021/04/21 07:24:45;;;;;;;9.15;4.45;;;9.60;50.20;;;;;;4991124;29;20121;-67
2021/04/21 07:27:19;;;;;;;6.47;4.50;;;9.80;53.50;;;;;;4991791;29;20101;-67
2021/04/21 07:29:50;;;;;;;8.02;4.45;;;9.90;53.20;;;;;;4991188;29;20046;-67
2021/04/21 07:32:24;;;;;;;6.60;4.68;;;10.20;52.80;;;;;;5004090;29;20399;-67
2021/04/21 07:35:01;;;;;;;6.28;5.22;;;10.30;49.40;;;;;;4993657;29;20064;-67
2021/04/21 07:37:43;;;;;;;6.97;5.60;;;10.50;48.70;;;;;;4991230;29;20062;-66
2021/04/21 07:40:35;;;;;;;10.95;5.55;;;10.70;50.30;;;;;;4989809;29;20054;-66
2021/04/21 07:43:12;;;;;;;8.20;4.93;;;10.80;50.70;;;;;;4990250;29;20053;-66
2021/04/21 07:45:50;;;;;;;10.88;5.38;;;11.00;47.00;;;;;;4992580;29;20066;-66
2021/04/21 07:48:33;;;;;;;7.60;5.40;;;11.10;48.80;;;;;;4990536;29;20459;-66
2021/04/21 07:51:15;;;;;;;5.88;5.28;;;11.20;42.50;;;;;;4989628;29;20089;-66
2021/04/21 07:53:58;;;;;;;8.65;5.53;;;11.20;43.80;;;;;;4988299;29;20050;-66
2021/04/21 07:56:35;;;;;;;11.48;6.03;;;11.40;47.20;;;;;;4990270;29;20054;-67
2021/04/21 07:59:29;;;;;;;6.93;5.70;;;11.60;46.20;;;;;;4992400;29;20366;-66
2021/04/21 08:02:21;;;;;;;9.40;5.43;;;11.70;43.00;;;;;;4987665;29;20058;-66
2021/04/21 08:05:05;;;;;;;7.18;5.07;;;11.90;45.10;;;;;;4989570;29;20035;-66
2021/04/21 08:07:41;;;;;;;7.70;5.53;;;12.00;46.00;;;;;;4989075;29;20454;-66
2021/04/21 08:10:25;;;;;;;7.18;5.70;;;12.10;41.10;;;;;;4989458;29;20044;-66
2021/04/21 08:12:59;;;;;;;7.10;6.22;;;12.20;43.80;;;;;;5001573;29;20527;-66
2021/04/21 08:15:36;;;;;;;7.53;6.25;;;12.30;42.70;;;;;;4990480;29;20053;-67
2021/04/21 08:18:08;;;;;;;7.70;6.60;;;12.40;44.20;;;;;;4989074;29;20703;-66
2021/04/21 08:20:39;;;;;;;10.02;6.97;;;12.50;43.50;;;;;;4989351;29;20046;-66
2021/04/21 08:23:31;;;;;;;9.85;8.85;;;12.70;45.20;;;;;;4982202;29;20050;-68
2021/04/21 08:26:03;;;;;;;12.38;10.65;;;12.80;43.50;;;;;;4991755;29;20057;-67
2021/04/21 08:28:35;;;;;;;10.55;8.15;;;12.90;44.90;;;;;;4988986;29;20046;-66
2021/04/21 08:31:07;;;;;;;8.48;6.82;;;13.00;45.10;;;;;;4989423;29;20498;-66
2021/04/21 08:33:39;;;;;;;9.40;6.93;;;13.20;45.30;;;;;;4989446;29;20778;-66
2021/04/21 08:36:11;;;;;;;7.57;6.50;;;13.30;45.30;;;;;;5003373;29;20517;-66
2021/04/21 08:38:43;;;;;;;7.75;6.25;;;13.40;45.50;;;;;;4988915;29;20045;-66
2021/04/21 08:41:17;;;;;;;9.88;8.43;;;13.60;44.30;;;;;;4989229;29;20045;-68
2021/04/21 08:43:51;;;;;;;10.05;8.88;;;13.70;45.40;;;;;;4991423;29;20046;-66
2021/04/21 08:46:24;;;;;;;14.68;9.63;;;13.80;44.40;;;;;;4988329;29;20046;-66
2021/04/21 08:48:59;;;;;;;15.77;12.70;;;14.00;45.00;;;;;;4989666;29;20050;-66
2021/04/21 08:51:32;;;;;;;14.60;12.85;;;14.10;43.70;;;;;;4990917;29;20106;-66
2021/04/21 08:54:06;;;;;;;9.15;7.43;;;14.30;43.30;;;;;;4988293;29;20064;-66
2021/04/21 08:56:42;;;;;;;8.95;7.38;;;14.30;44.20;;;;;;5003683;29;20041;-66
2021/04/21 08:59:15;;;;;;;8.00;6.85;;;14.50;42.30;;;;;;4990209;29;20057;-68
2021/04/21 09:01:47;;;;;;;11.20;10.00;;;14.60;41.90;;;;;;4988917;29;20074;-66
2021/04/21 09:04:19;;;;;;;10.38;7.45;;;14.70;42.10;;;;;;4988848;29;20145;-66
2021/04/21 09:06:53;;;;;;;12.27;7.30;;;14.80;40.30;;;;;;4988079;29;20061;-66
2021/04/21 09:09:25;;;;;;;8.98;7.00;;;14.90;40.30;;;;;;5005426;29;20094;-67
2021/04/21 09:12:00;;;;;;;9.50;7.15;;;15.00;39.20;;;;;;4989460;29;20054;-67
2021/04/21 09:14:33;;;;;;;7.38;6.57;;;15.10;38.30;;;;;;5001006;29;20046;-66
2021/04/21 09:17:05;;;;;;;9.65;6.80;;;15.20;38.70;;;;;;4991542;29;20496;-67
2021/04/21 09:19:37;;;;;;;7.65;6.85;;;15.40;37.40;;;;;;4992186;29;20078;-66
2021/04/21 09:22:11;;;;;;;8.82;6.63;;;15.50;37.70;;;;;;5002472;29;20102;-66
2021/04/21 09:24:43;;;;;;;8.25;6.32;;;15.60;36.10;;;;;;4987683;29;20054;-66
2021/04/21 09:27:35;;;;;;;8.07;6.72;;;15.70;35.50;;;;;;4989906;29;20127;-66
2021/04/21 09:30:22;;;;;;;8.57;6.93;;;15.80;36.60;;;;;;4988311;29;20529;-67
2021/04/21 09:32:55;;;;;;;7.80;6.97;;;15.90;37.10;;;;;;4988348;29;20053;-66
2021/04/21 09:35:38;;;;;;;9.48;7.80;;;16.00;35.60;;;;;;4989748;29;20134;-67
2021/04/21 09:38:20;;;;;;;8.65;7.20;;;16.20;36.30;;;;;;4987840;29;20051;-66
2021/04/21 09:40:54;;;;;;;8.40;7.38;;;16.30;37.60;;;;;;4987726;29;20084;-66
2021/04/21 09:43:33;;;;;;;7.68;6.95;;;16.50;36.40;;;;;;4987236;29;20046;-66
2021/04/21 09:46:12;;;;;;;7.63;6.85;;;16.60;34.90;;;;;;4989198;29;20073;-67
2021/04/21 09:48:46;;;;;;;8.18;7.35;;;16.80;35.50;;;;;;4989194;29;20111;-67
2021/04/21 09:51:23;;;;;;;8.45;7.65;;;17.00;34.60;;;;;;5004837;29;20053;-67
2021/04/21 09:53:54;;;;;;;8.02;7.22;;;17.20;34.30;;;;;;4989366;29;20061;-67
2021/04/21 09:56:26;;;;;;;9.20;7.80;;;17.50;34.40;;;;;;4987690;29;20050;-68
2021/04/21 09:59:01;;;;;;;8.63;7.72;;;17.50;34.10;;;;;;4991706;29;20050;-67
2021/04/21 10:01:36;;;;;;;8.63;7.72;;;17.50;32.90;;;;;;4989104;29;20660;-68
2021/04/21 10:04:21;;;;;;;8.18;7.30;;;17.00;32.80;;;;;;4989132;29;20056;-66
2021/04/21 10:06:56;;;;;;;8.50;7.70;;;16.90;34.10;;;;;;4994259;29;20528;-66
2021/04/21 10:09:34;;;;;;;8.70;7.80;;;16.70;35.00;;;;;;4989735;29;20138;-66
2021/04/21 10:12:17;;;;;;;10.25;7.97;;;16.70;34.50;;;;;;5006106;29;20118;-67
2021/04/21 10:15:01;;;;;;;8.57;7.78;;;16.70;35.70;;;;;;4992251;29;20138;-69
2021/04/21 10:17:43;;;;;;;9.07;7.25;;;16.70;34.30;;;;;;4989754;29;20054;-66
2021/04/21 10:20:17;;;;;;;8.90;7.60;;;16.70;36.10;;;;;;4989393;29;20045;-66
2021/04/21 10:22:49;;;;;;;8.13;6.90;;;16.60;35.20;;;;;;4992064;29;20631;-65
2021/04/21 10:25:20;;;;;;;8.05;6.82;;;16.60;34.80;;;;;;4990456;29;20050;-65
2021/04/21 10:27:52;;;;;;;8.27;7.07;;;16.40;35.40;;;;;;4992217;29;20038;-66
2021/04/21 10:30:25;;;;;;;9.20;8.30;;;16.40;35.90;;;;;;4991481;29;20058;-65
2021/04/21 10:32:56;;;;;;;12.60;10.43;;;16.20;36.10;;;;;;4993397;29;20049;-66
2021/04/21 10:35:29;;;;;;;9.98;8.98;;;16.10;36.00;;;;;;4992884;29;20165;-66
2021/04/21 10:38:00;;;;;;;9.00;8.10;;;16.10;36.20;;;;;;4988558;29;21023;-67
2021/04/21 10:40:32;;;;;;;9.82;8.75;;;16.00;36.60;;;;;;4990924;29;20150;-65
2021/04/21 10:43:05;;;;;;;9.18;8.25;;;16.00;34.50;;;;;;4997228;29;20574;-65
2021/04/21 10:45:49;;;;;;;9.02;8.13;;;16.00;35.10;;;;;;4990576;29;20051;-65
2021/04/21 10:48:41;;;;;;;10.07;8.27;;;16.00;35.30;;;;;;5005334;29;20045;-66
2021/04/21 10:51:36;;;;;;;9.75;8.85;;;16.10;35.50;;;;;;4990315;29;20058;-66
2021/04/21 10:54:09;;;;;;;8.82;8.02;;;16.20;35.80;;;;;;4990671;29;20133;-65
2021/04/21 10:56:40;;;;;;;10.38;7.75;;;16.20;32.80;;;;;;4987901;29;20172;-65
2021/04/21 10:59:12;;;;;;;9.13;8.23;;;16.10;32.90;;;;;;4990417;29;20423;-64
2021/04/21 11:01:58;;;;;;;7.88;7.07;;;16.20;32.50;;;;;;4989953;29;20047;-65
2021/04/21 11:05:03;;;;;;;8.43;7.15;;;16.30;30.70;;;;;;5002437;29;20438;-65
2021/04/21 11:07:35;;;;;;;9.52;8.52;;;16.20;30.50;;;;;;4989119;29;20046;-65
2021/04/21 11:10:31;;;;;;;8.32;7.53;;;16.40;30.60;;;;;;4988747;29;20050;-65
2021/04/21 11:13:05;;;;;;;8.07;7.28;;;16.80;30.20;;;;;;4990390;29;20054;-65
2021/04/21 11:15:45;;;;;;;8.10;7.30;;;17.30;29.80;;;;;;4988366;29;20527;-66
2021/04/21 11:18:27;;;;;;;7.70;6.90;;;17.80;28.70;;;;;;5002445;29;20151;-64
2021/04/21 11:21:00;;;;;;;9.32;8.43;;;17.90;28.30;;;;;;4990133;29;20054;-64
2021/04/21 11:26:26;;;;;;;8.82;7.93;;;18.70;30.00;;;;;;4990104;29;20102;-65
2021/04/21 11:29:00;;;;;;;9.02;8.00;;;18.70;30.00;;;;;;4990469;29;20454;-65
2021/04/21 11:31:44;;;;;;;8.75;7.63;;;18.50;30.00;;;;;;4990923;29;20057;-65
2021/04/21 11:34:20;;;;;;;8.40;7.60;;;18.40;30.00;;;;;;4992759;29;20053;-65
2021/04/21 11:37:08;;;;;;;8.93;7.65;;;18.10;30.00;;;;;;4988775;29;20098;-64
2021/04/21 11:42:22;;;;;;;8.35;7.55;;;17.70;30.00;;;;;;4987086;29;20042;-64
2021/04/21 11:44:59;;;;;;;8.10;7.30;;;17.60;31.00;;;;;;5005154;29;20038;-64
2021/04/21 11:47:56;;;;;;;9.25;7.13;;;17.40;30.80;;;;;;4986210;29;20062;-64
2021/04/21 11:50:32;;;;;;;7.75;6.82;;;17.20;30.60;;;;;;4988959;29;20042;-64
2021/04/21 11:53:07;;;;;;;7.47;6.68;;;17.00;31.10;;;;;;4990339;29;20527;-64
2021/04/21 11:55:55;;;;;;;7.90;7.10;;;17.10;30.50;;;;;;4989949;29;20058;-64
2021/04/21 11:58:29;;;;;;;8.15;7.32;;;17.60;30.00;;;;;;4990288;29;20119;-66
2021/04/21 12:01:05;;;;;;;8.20;7.40;;;18.10;29.40;;;;;;4987433;29;20057;-65
2021/04/21 12:03:45;;;;;;;9.65;7.80;;;18.50;28.60;;;;;;4990375;29;20124;-65
2021/04/21 12:06:18;;;;;;;8.73;7.88;;;18.60;29.00;;;;;;4990542;29;20054;-66
2021/04/21 12:08:51;;;;;;;8.15;7.35;;;19.00;28.90;;;;;;4991287;29;20231;-68
2021/04/21 12:11:25;;;;;;;7.95;7.15;;;18.90;29.10;;;;;;4990093;29;20046;-66
2021/04/21 12:13:57;;;;;;;8.13;7.32;;;18.70;28.90;;;;;;4990266;29;20049;-67
2021/04/21 12:16:29;;;;;;;7.80;7.00;;;18.40;29.00;;;;;;4990166;29;20106;-67
2021/04/21 12:19:01;;;;;;;7.43;6.72;;;18.00;28.30;;;;;;4989551;29;20069;-66
2021/04/21 12:21:41;;;;;;;8.43;6.53;;;17.80;29.10;;;;;;4988710;29;20473;-64
2021/04/21 12:24:12;;;;;;;7.65;6.85;;;17.50;29.40;;;;;;4988085;29;20480;-64
2021/04/21 12:26:47;;;;;;;8.15;6.95;;;16.70;30.00;;;;;;4988668;29;20057;-64
2021/04/21 12:29:20;;;;;;;7.47;6.72;;;16.60;29.90;;;;;;4991757;29;20424;-65
2021/04/21 12:31:52;;;;;;;7.35;6.65;;;16.60;29.80;;;;;;4999038;29;20070;-65
2021/04/21 12:34:27;;;;;;;7.70;6.90;;;16.60;30.90;;;;;;4986863;29;20479;-64
2021/04/21 12:36:58;;;;;;;9.20;6.60;;;16.70;30.60;;;;;;5002323;29;20837;-65
2021/04/21 12:39:30;;;;;;;8.82;6.63;;;16.60;30.60;;;;;;4986847;29;20129;-65
2021/04/21 12:42:01;;;;;;;7.88;7.07;;;16.60;30.90;;;;;;4986492;29;20058;-65
2021/04/21 12:44:40;;;;;;;7.43;6.63;;;16.80;30.30;;;;;;4988452;29;20046;-64
2021/04/21 12:47:13;;;;;;;7.03;6.30;;;17.20;31.20;;;;;;5001110;29;20822;-64
2021/04/21 12:49:47;;;;;;;7.20;6.50;;;17.70;30.30;;;;;;4988991;29;20128;-64
2021/04/21 12:52:28;;;;;;;6.80;6.20;;;18.00;28.70;;;;;;5002734;29;20054;-65
2021/04/21 12:55:01;;;;;;;7.47;6.68;;;18.20;28.70;;;;;;4989898;29;20042;-64
2021/04/21 12:57:51;;;;;;;7.28;6.57;;;17.90;29.80;;;;;;4989218;29;20137;-66
2021/04/21 13:00:26;;;;;;;7.95;7.15;;;18.00;28.70;;;;;;4989196;29;20050;-64
2021/04/21 13:02:58;;;;;;;7.80;7.00;;;18.00;29.90;;;;;;4990526;29;20417;-64
2021/04/21 13:05:50;;;;;;;7.78;6.97;;;18.40;28.90;;;;;;4994213;29;20058;-64
2021/04/21 13:08:26;;;;;;;7.65;6.95;;;18.50;29.10;;;;;;4989925;29;20076;-64
2021/04/21 13:10:59;;;;;;;8.05;7.22;;;18.30;30.00;;;;;;4987722;29;20046;-65
2021/04/21 13:13:33;;;;;;;7.70;7.00;;;18.10;29.80;;;;;;4991759;29;20061;-65
2021/04/21 13:16:06;;;;;;;9.40;8.18;;;17.90;29.60;;;;;;5002367;29;20046;-65
2021/04/21 13:18:37;;;;;;;8.48;7.70;;;17.80;28.80;;;;;;4989885;29;20175;-65
2021/04/21 13:21:11;;;;;;;8.75;7.80;;;17.80;28.20;;;;;;4986090;29;20061;-65
2021/04/21 13:23:51;;;;;;;9.52;8.52;;;18.00;29.30;;;;;;4987174;29;20180;-65
2021/04/21 13:26:22;;;;;;;9.27;7.95;;;18.20;30.80;;;;;;4990056;29;20042;-65
2021/04/21 13:28:54;;;;;;;8.80;8.00;;;18.40;31.60;;;;;;4988467;29;20058;-64
2021/04/21 13:31:30;;;;;;;8.90;8.07;;;18.60;29.80;;;;;;4984539;29;20077;-65
2021/04/21 13:34:02;;;;;;;8.43;7.57;;;18.40;28.50;;;;;;4990200;29;20042;-64
2021/04/21 13:36:36;;;;;;;9.88;8.52;;;18.50;30.90;;;;;;4990613;29;20139;-64
2021/04/21 13:39:07;;;;;;;8.90;8.10;;;18.30;31.50;;;;;;5003681;29;20053;-64
2021/04/21 13:41:38;;;;;;;9.05;8.07;;;18.40;32.50;;;;;;4991279;29;20046;-63
2021/04/21 13:44:10;;;;;;;9.30;8.10;;;18.20;31.30;;;;;;4989200;29;20441;-63
2021/04/21 13:46:41;;;;;;;8.80;8.00;;;18.10;32.00;;;;;;4992288;29;20426;-64
2021/04/21 13:49:14;;;;;;;8.50;7.70;;;18.00;30.70;;;;;;4990992;29;20077;-64
2021/04/21 13:51:47;;;;;;;10.68;7.88;;;17.90;31.70;;;;;;5007376;29;20038;-64
2021/04/21 13:54:19;;;;;;;8.75;7.95;;;17.60;33.10;;;;;;4992391;29;20046;-65
2021/04/21 13:56:50;;;;;;;8.57;7.78;;;17.30;34.70;;;;;;4992278;29;20426;-66